sensor_id;sensor_type;location;lat;lon;timestamp;temperature;humidity
52439;DHT22;38359;53.150;6.504;2023-02-15T00:10:22;2.50;99.90
52439;DHT22;38359;53.150;6.504;2023-02-15T00:20:48;2.50;99.90
52439;DHT22;38359;53.150;6.504;2023-02-15T00:31:14;2.10;99.90
52439;DHT22;38359;53.150;6.504;2023-02-15T00:41:40;1.90;99.90
52439;DHT22;38359;53.150;6.504;2023-02-15T00:52:06;1.80;99.90
52439;DHT22;38359;53.150;6.504;2023-02-15T01:02:32;2.00;99.90
52439;DHT22;38359;53.150;6.504;2023-02-15T01:12:58;1.90;99.90
52439;DHT22;38359;53.150;6.504;2023-02-15T01:23:23;1.70;99.90
52439;DHT22;38359;53.150;6.504;2023-02-15T01:33:49;1.30;99.90
52439;DHT22;38359;53.150;6.504;2023-02-15T01:44:50;1.70;99.90
52439;DHT22;38359;53.150;6.504;2023-02-15T01:55:24;1.40;99.90
52439;DHT22;38359;53.150;6.504;2023-02-15T02:05:51;1.10;99.90
52439;DHT22;38359;53.150;6.504;2023-02-15T02:16:37;1.10;99.90
52439;DHT22;38359;53.150;6.504;2023-02-15T02:49:29;0.80;99.90
52439;DHT22;38359;53.150;6.504;2023-02-15T02:59:57;0.90;99.90
52439;DHT22;38359;53.150;6.504;2023-02-15T03:10:25;0.80;99.90
52439;DHT22;38359;53.150;6.504;2023-02-15T03:20:52;0.50;99.90
52439;DHT22;38359;53.150;6.504;2023-02-15T03:31:20;0.30;99.90
52439;DHT22;38359;53.150;6.504;2023-02-15T03:42:04;0.40;99.90
52439;DHT22;38359;53.150;6.504;2023-02-15T03:52:35;0.30;99.90
52439;DHT22;38359;53.150;6.504;2023-02-15T04:13:33;0.00;99.90
52439;DHT22;38359;53.150;6.504;2023-02-15T04:23:58;0.20;99.90
52439;DHT22;38359;53.150;6.504;2023-02-15T04:34:43;0.30;99.90
52439;DHT22;38359;53.150;6.504;2023-02-15T04:45:09;0.40;99.90
52439;DHT22;38359;53.150;6.504;2023-02-15T04:55:34;0.40;99.90
52439;DHT22;38359;53.150;6.504;2023-02-15T05:06:01;0.50;99.90
52439;DHT22;38359;53.150;6.504;2023-02-15T05:16:26;0.30;99.90
52439;DHT22;38359;53.150;6.504;2023-02-15T05:26:53;0.40;99.90
52439;DHT22;38359;53.150;6.504;2023-02-15T05:37:37;0.40;99.90
52439;DHT22;38359;53.150;6.504;2023-02-15T05:48:03;0.50;99.90
52439;DHT22;38359;53.150;6.504;2023-02-15T05:58:37;0.70;99.90
52439;DHT22;38359;53.150;6.504;2023-02-15T06:09:04;0.50;99.90
52439;DHT22;38359;53.150;6.504;2023-02-15T06:19:30;0.90;99.90
52439;DHT22;38359;53.150;6.504;2023-02-15T06:29:55;1.70;99.90
52439;DHT22;38359;53.150;6.504;2023-02-15T06:40:21;1.80;99.90
52439;DHT22;38359;53.150;6.504;2023-02-15T06:50:47;1.50;99.90
52439;DHT22;38359;53.150;6.504;2023-02-15T07:01:15;1.30;99.90
52439;DHT22;38359;53.150;6.504;2023-02-15T07:11:41;1.30;99.90
52439;DHT22;38359;53.150;6.504;2023-02-15T07:22:25;1.40;99.90
52439;DHT22;38359;53.150;6.504;2023-02-15T07:32:57;1.40;99.90
52439;DHT22;38359;53.150;6.504;2023-02-15T07:43:44;1.50;99.90
52439;DHT22;38359;53.150;6.504;2023-02-15T07:54:11;1.60;99.90
52439;DHT22;38359;53.150;6.504;2023-02-15T08:04:36;1.80;99.90
52439;DHT22;38359;53.150;6.504;2023-02-15T08:15:02;1.90;99.90
52439;DHT22;38359;53.150;6.504;2023-02-15T08:25:28;2.00;99.90
52439;DHT22;38359;53.150;6.504;2023-02-15T08:35:54;2.50;99.90
52439;DHT22;38359;53.150;6.504;2023-02-15T08:46:20;2.90;99.90
52439;DHT22;38359;53.150;6.504;2023-02-15T08:56:47;3.10;99.90
52439;DHT22;38359;53.150;6.504;2023-02-15T09:07:13;2.80;99.90
52439;DHT22;38359;53.150;6.504;2023-02-15T09:17:40;3.50;99.90
52439;DHT22;38359;53.150;6.504;2023-02-15T09:28:05;3.20;99.90
52439;DHT22;38359;53.150;6.504;2023-02-15T09:38:31;3.50;99.90
52439;DHT22;38359;53.150;6.504;2023-02-15T09:49:11;4.30;99.90
52439;DHT22;38359;53.150;6.504;2023-02-15T10:10:40;4.90;99.90
52439;DHT22;38359;53.150;6.504;2023-02-15T10:33:33;5.30;99.90
52439;DHT22;38359;53.150;6.504;2023-02-15T11:16:36;7.20;99.90
52439;DHT22;38359;53.150;6.504;2023-02-15T11:37:53;8.00;99.90
52439;DHT22;38359;53.150;6.504;2023-02-15T11:48:23;8.30;99.90
52439;DHT22;38359;53.150;6.504;2023-02-15T11:58:57;8.60;99.90
52439;DHT22;38359;53.150;6.504;2023-02-15T12:09:37;8.80;99.90
52439;DHT22;38359;53.150;6.504;2023-02-15T12:30:42;9.60;99.90
52439;DHT22;38359;53.150;6.504;2023-02-15T12:41:26;10.00;99.90
52439;DHT22;38359;53.150;6.504;2023-02-15T12:51:57;10.30;99.90
52439;DHT22;38359;53.150;6.504;2023-02-15T13:13:02;10.70;99.90
52439;DHT22;38359;53.150;6.504;2023-02-15T13:23:35;10.60;99.90
52439;DHT22;38359;53.150;6.504;2023-02-15T13:34:14;10.70;99.90
52439;DHT22;38359;53.150;6.504;2023-02-15T14:17:59;11.50;99.90
52439;DHT22;38359;53.150;6.504;2023-02-15T14:30:03;11.30;99.90
52439;DHT22;38359;53.150;6.504;2023-02-15T14:40:26;12.10;99.90
52439;DHT22;38359;53.150;6.504;2023-02-15T15:02:17;11.60;99.90
52439;DHT22;38359;53.150;6.504;2023-02-15T15:12:50;11.60;99.90
52439;DHT22;38359;53.150;6.504;2023-02-15T15:55:26;10.50;99.90
52439;DHT22;38359;53.150;6.504;2023-02-15T16:05:55;10.10;99.90
52439;DHT22;38359;53.150;6.504;2023-02-15T16:16:27;9.90;99.90
52439;DHT22;38359;53.150;6.504;2023-02-15T16:38:00;9.30;99.90
52439;DHT22;38359;53.150;6.504;2023-02-15T16:48:26;9.10;99.90
52439;DHT22;38359;53.150;6.504;2023-02-15T16:58:54;8.80;99.90
52439;DHT22;38359;53.150;6.504;2023-02-15T17:09:20;8.60;99.90
52439;DHT22;38359;53.150;6.504;2023-02-15T17:19:53;8.40;99.90
52439;DHT22;38359;53.150;6.504;2023-02-15T17:30:34;8.30;99.90
52439;DHT22;38359;53.150;6.504;2023-02-15T17:41:03;8.50;99.90
52439;DHT22;38359;53.150;6.504;2023-02-15T17:51:31;8.00;99.90
52439;DHT22;38359;53.150;6.504;2023-02-15T18:01:59;7.90;99.90
52439;DHT22;38359;53.150;6.504;2023-02-15T18:12:44;7.70;99.90
52439;DHT22;38359;53.150;6.504;2023-02-15T18:23:13;7.70;99.90
52439;DHT22;38359;53.150;6.504;2023-02-15T18:33:45;7.40;99.90
52439;DHT22;38359;53.150;6.504;2023-02-15T18:44:13;7.40;99.90
52439;DHT22;38359;53.150;6.504;2023-02-15T18:54:39;7.30;99.90
52439;DHT22;38359;53.150;6.504;2023-02-15T19:05:04;7.20;99.90
52439;DHT22;38359;53.150;6.504;2023-02-15T19:15:31;7.70;99.90
52439;DHT22;38359;53.150;6.504;2023-02-15T19:25:56;7.20;99.90
52439;DHT22;38359;53.150;6.504;2023-02-15T19:36:22;7.10;99.90
52439;DHT22;38359;53.150;6.504;2023-02-15T19:46:48;7.00;99.90
52439;DHT22;38359;53.150;6.504;2023-02-15T19:57:14;6.90;99.90
52439;DHT22;38359;53.150;6.504;2023-02-15T20:07:43;7.00;99.90
52439;DHT22;38359;53.150;6.504;2023-02-15T20:18:10;6.90;99.90
52439;DHT22;38359;53.150;6.504;2023-02-15T20:28:36;6.90;99.90
52439;DHT22;38359;53.150;6.504;2023-02-15T20:39:09;7.00;99.90
52439;DHT22;38359;53.150;6.504;2023-02-15T20:49:43;6.90;99.90
52439;DHT22;38359;53.150;6.504;2023-02-15T21:00:20;7.00;99.90
52439;DHT22;38359;53.150;6.504;2023-02-15T21:10:50;7.10;99.90
52439;DHT22;38359;53.150;6.504;2023-02-15T21:21:20;6.90;99.90
52439;DHT22;38359;53.150;6.504;2023-02-15T21:31:48;6.70;99.90
52439;DHT22;38359;53.150;6.504;2023-02-15T21:42:14;7.20;99.90
52439;DHT22;38359;53.150;6.504;2023-02-15T21:52:59;6.50;99.90
52439;DHT22;38359;53.150;6.504;2023-02-15T22:03:36;6.40;99.90
52439;DHT22;38359;53.150;6.504;2023-02-15T22:14:02;6.50;99.90
52439;DHT22;38359;53.150;6.504;2023-02-15T22:24:28;6.30;99.90
52439;DHT22;38359;53.150;6.504;2023-02-15T22:34:54;6.30;99.90
52439;DHT22;38359;53.150;6.504;2023-02-15T22:45:22;6.20;99.90
52439;DHT22;38359;53.150;6.504;2023-02-15T22:55:49;6.00;99.90
52439;DHT22;38359;53.150;6.504;2023-02-15T23:06:15;6.00;99.90
52439;DHT22;38359;53.150;6.504;2023-02-15T23:16:41;6.00;99.90
52439;DHT22;38359;53.150;6.504;2023-02-15T23:27:15;6.00;99.90
52439;DHT22;38359;53.150;6.504;2023-02-15T23:38:01;6.00;99.90
52439;DHT22;38359;53.150;6.504;2023-02-15T23:48:34;5.90;99.90
52439;DHT22;38359;53.150;6.504;2023-02-15T23:59:01;5.80;99.90
